createdAt,value
2018-06-30T00:00:34.960Z,22.95
2018-06-30T00:03:02.915Z,22.91
2018-06-30T00:05:30.834Z,22.94
2018-06-30T00:07:58.772Z,22.94
2018-06-30T00:10:29.747Z,22.95
2018-06-30T00:12:58.838Z,22.95
2018-06-30T00:15:26.749Z,22.93
2018-06-30T00:17:54.815Z,22.94
2018-06-30T00:20:22.829Z,22.95
2018-06-30T00:25:32.151Z,22.96
2018-06-30T00:28:02.486Z,22.94
2018-06-30T00:30:32.778Z,22.95
2018-06-30T00:33:03.031Z,22.96
2018-06-30T00:35:33.338Z,22.93
2018-06-30T00:38:03.613Z,22.96
2018-06-30T00:40:33.967Z,22.96
2018-06-30T00:43:04.203Z,22.94
2018-06-30T00:45:34.491Z,22.94
2018-06-30T00:48:04.829Z,22.94
2018-06-30T00:50:35.136Z,22.96
2018-06-30T00:53:05.376Z,22.96
2018-06-30T00:55:35.645Z,22.96
2018-06-30T00:58:06.779Z,22.98
2018-06-30T01:00:37.188Z,22.95
2018-06-30T01:03:07.617Z,22.96
2018-06-30T01:05:37.903Z,22.96
2018-06-30T01:08:08.295Z,22.97
2018-06-30T01:10:38.594Z,22.96
2018-06-30T01:13:08.885Z,22.95
2018-06-30T01:15:39.190Z,22.95
2018-06-30T01:18:09.474Z,22.96
2018-06-30T01:20:39.769Z,22.96
2018-06-30T01:23:09.764Z,22.96
2018-06-30T01:25:39.875Z,22.95
2018-06-30T01:28:10.144Z,22.96
2018-06-30T01:30:40.446Z,22.96
2018-06-30T01:33:10.754Z,22.93
2018-06-30T01:35:41.210Z,22.95
2018-06-30T01:38:11.537Z,22.95
2018-06-30T01:40:41.805Z,22.95
2018-06-30T01:43:12.062Z,22.93
2018-06-30T01:45:42.316Z,22.96
2018-06-30T01:48:12.377Z,22.93
2018-06-30T01:50:42.601Z,22.93
2018-06-30T01:53:12.845Z,22.95
2018-06-30T01:55:44.077Z,22.96
2018-06-30T01:58:14.295Z,22.96
2018-06-30T02:00:44.600Z,22.95
2018-06-30T02:03:14.869Z,22.93
2018-06-30T02:05:45.129Z,22.96
2018-06-30T02:08:15.557Z,22.95
2018-06-30T02:10:45.700Z,22.92
2018-06-30T02:13:15.882Z,22.96
2018-06-30T02:15:46.137Z,22.95
2018-06-30T02:18:16.402Z,22.95
2018-06-30T02:20:46.786Z,22.97
2018-06-30T02:23:17.051Z,22.96
2018-06-30T02:25:47.295Z,22.96
2018-06-30T02:28:17.354Z,22.96
2018-06-30T02:30:47.498Z,22.97
2018-06-30T02:33:17.845Z,22.97
2018-06-30T02:35:48.095Z,22.97
2018-06-30T02:38:18.369Z,22.97
2018-06-30T02:40:48.621Z,22.94
2018-06-30T02:43:18.887Z,22.97
2018-06-30T02:45:49.210Z,22.97
2018-06-30T02:48:19.424Z,22.97
2018-06-30T02:50:49.677Z,22.96
2018-06-30T02:53:20.026Z,22.97
2018-06-30T02:55:50.499Z,22.97
2018-06-30T02:58:20.748Z,22.96
2018-06-30T03:00:51.009Z,22.96
2018-06-30T03:03:21.249Z,22.96
2018-06-30T03:05:51.500Z,22.93
2018-06-30T03:08:21.720Z,22.97
2018-06-30T03:10:52.034Z,22.97
2018-06-30T03:13:22.288Z,22.94
2018-06-30T03:15:52.539Z,22.95
2018-06-30T03:18:22.802Z,22.97
2018-06-30T03:20:52.798Z,22.96
2018-06-30T03:23:22.929Z,22.94
2018-06-30T03:25:53.212Z,22.94
2018-06-30T03:28:23.484Z,22.96
2018-06-30T03:30:53.728Z,22.95
2018-06-30T03:33:23.996Z,22.95
2018-06-30T03:35:54.295Z,22.94
2018-06-30T03:38:24.599Z,22.96
2018-06-30T03:40:54.618Z,22.94
2018-06-30T03:43:24.773Z,22.95
2018-06-30T03:45:55.056Z,22.96
2018-06-30T03:48:25.137Z,22.95
2018-06-30T03:50:55.399Z,22.95
2018-06-30T03:53:25.662Z,22.97
2018-06-30T03:55:55.926Z,22.97
2018-06-30T03:58:26.201Z,22.96
2018-06-30T04:00:56.499Z,22.97
2018-06-30T04:03:26.818Z,22.98
2018-06-30T04:05:56.827Z,22.95
2018-06-30T04:08:27.063Z,22.97
2018-06-30T04:10:57.312Z,22.98
2018-06-30T04:13:27.593Z,22.97
2018-06-30T04:15:57.859Z,22.97
2018-06-30T04:18:28.096Z,22.96
2018-06-30T04:20:58.337Z,22.96
2018-06-30T04:23:28.593Z,22.96
2018-06-30T04:25:58.856Z,23.00
2018-06-30T04:28:29.151Z,22.99
2018-06-30T04:30:59.421Z,22.99
2018-06-30T04:33:29.754Z,22.99
2018-06-30T04:36:00.050Z,22.99
2018-06-30T04:38:30.345Z,22.99
2018-06-30T04:41:00.371Z,22.97
2018-06-30T04:43:30.613Z,22.99
2018-06-30T04:46:00.951Z,22.97
2018-06-30T04:48:31.191Z,22.99
2018-06-30T04:51:01.522Z,22.99
2018-06-30T04:53:31.847Z,22.99
2018-06-30T04:56:02.080Z,22.99
2018-06-30T04:58:32.382Z,22.99
2018-06-30T05:01:02.665Z,22.96
2018-06-30T05:03:33.081Z,23.00
2018-06-30T05:06:03.380Z,23.00
2018-06-30T05:08:33.645Z,22.98
2018-06-30T05:11:03.860Z,22.99
2018-06-30T05:13:34.206Z,23.00
2018-06-30T05:16:04.742Z,22.99
2018-06-30T05:18:35.041Z,23.02
2018-06-30T05:21:05.324Z,23.01
2018-06-30T05:23:35.687Z,23.03
2018-06-30T05:26:06.011Z,23.03
2018-06-30T05:28:36.254Z,23.03
2018-06-30T05:31:06.620Z,23.03
2018-06-30T05:33:36.882Z,23.03
2018-06-30T05:36:07.096Z,23.05
2018-06-30T05:38:37.426Z,23.04
2018-06-30T05:41:07.959Z,23.03
2018-06-30T05:43:38.227Z,23.04
2018-06-30T05:46:08.462Z,23.05
2018-06-30T05:48:38.712Z,23.03
2018-06-30T05:51:08.976Z,23.05
2018-06-30T05:53:39.262Z,23.05
2018-06-30T05:56:09.526Z,23.06
2018-06-30T05:58:39.798Z,23.05
2018-06-30T06:01:10.086Z,23.07
2018-06-30T06:03:40.382Z,23.07
2018-06-30T06:06:10.645Z,23.07
2018-06-30T06:08:41.018Z,23.07
2018-06-30T06:11:11.268Z,23.05
2018-06-30T06:13:41.593Z,23.07
2018-06-30T06:16:11.611Z,23.08
2018-06-30T06:18:41.518Z,23.10
2018-06-30T06:21:11.762Z,23.09
2018-06-30T06:23:42.099Z,23.11
2018-06-30T06:26:12.323Z,23.08
2018-06-30T06:28:42.575Z,23.08
2018-06-30T06:31:12.818Z,23.08
2018-06-30T06:33:43.148Z,23.08
2018-06-30T06:36:13.428Z,23.12
2018-06-30T06:38:43.717Z,23.12
2018-06-30T06:41:13.998Z,23.11
2018-06-30T06:43:44.293Z,23.13
2018-06-30T06:46:14.563Z,23.13
2018-06-30T06:48:44.655Z,23.14
2018-06-30T06:51:14.780Z,23.12
2018-06-30T06:53:45.129Z,23.14
2018-06-30T06:56:15.567Z,23.12
2018-06-30T06:58:45.798Z,23.14
2018-06-30T07:01:15.858Z,23.13
2018-06-30T07:03:46.112Z,23.14
2018-06-30T07:06:16.368Z,23.15
2018-06-30T07:08:46.701Z,23.15
2018-06-30T07:11:16.713Z,23.16
2018-06-30T07:13:47.074Z,23.15
2018-06-30T07:16:17.390Z,23.17
2018-06-30T07:18:47.660Z,23.16
2018-06-30T07:21:17.937Z,23.17
2018-06-30T07:23:48.214Z,23.17
2018-06-30T07:26:18.553Z,23.17
2018-06-30T07:28:48.833Z,23.19
2018-06-30T07:31:19.119Z,23.19
2018-06-30T07:33:49.437Z,23.18
2018-06-30T07:36:19.827Z,23.20
2018-06-30T07:38:50.655Z,23.20
2018-06-30T07:41:21.013Z,23.20
2018-06-30T07:43:51.322Z,23.20
2018-06-30T07:46:21.587Z,23.20
2018-06-30T07:48:51.985Z,23.20
2018-06-30T07:51:22.359Z,23.20
2018-06-30T07:53:52.687Z,23.20
2018-06-30T07:56:22.970Z,23.21
2018-06-30T07:58:53.099Z,23.23
2018-06-30T08:01:23.197Z,23.24
2018-06-30T08:03:53.734Z,23.24
2018-06-30T08:06:24.043Z,23.24
2018-06-30T08:08:54.273Z,23.24
2018-06-30T08:11:24.450Z,23.25
2018-06-30T08:13:54.711Z,23.26
2018-06-30T08:16:24.946Z,23.26
2018-06-30T08:18:55.012Z,23.27
2018-06-30T08:21:25.514Z,23.25
2018-06-30T08:23:55.755Z,23.27
2018-06-30T08:26:26.059Z,23.29
2018-06-30T08:28:56.387Z,23.28
2018-06-30T08:31:26.755Z,23.28
2018-06-30T08:33:57.004Z,23.29
2018-06-30T08:36:27.283Z,23.29
2018-06-30T11:17:59.964Z,27.49
2018-06-30T11:20:47.100Z,27.23
2018-06-30T11:23:44.291Z,26.94
2018-06-30T11:26:57.901Z,26.95
2018-06-30T11:29:28.561Z,26.69
2018-06-30T11:32:14.891Z,26.98
2018-06-30T11:34:45.702Z,27.40
2018-06-30T11:37:16.527Z,27.24
2018-06-30T11:47:08.980Z,27.19
2018-06-30T11:56:00.787Z,27.17
2018-06-30T11:58:44.112Z,26.95
2018-06-30T12:01:14.744Z,27.04
2018-06-30T12:04:05.058Z,27.13
2018-06-30T12:06:35.772Z,27.10
2018-06-30T12:09:10.576Z,27.15
2018-06-30T12:11:41.758Z,27.08
2018-06-30T12:14:12.401Z,27.00
2018-06-30T12:16:45.893Z,27.11
2018-06-30T12:19:16.409Z,27.17
2018-06-30T12:24:32.852Z,27.22
2018-06-30T12:27:04.284Z,27.11
2018-06-30T12:29:34.999Z,27.10
2018-06-30T12:32:05.758Z,27.28
2018-06-30T12:34:37.077Z,27.39
2018-06-30T12:37:07.628Z,27.37
2018-06-30T12:39:38.111Z,27.23
2018-06-30T12:42:08.746Z,27.15
2018-06-30T12:44:39.500Z,27.25
2018-06-30T12:47:12.059Z,27.23
2018-06-30T12:49:42.526Z,27.38
2018-06-30T12:52:14.617Z,27.42
2018-06-30T12:54:45.433Z,27.36
2018-06-30T12:57:16.152Z,27.34
2018-06-30T12:59:46.857Z,27.46
2018-06-30T13:02:17.676Z,27.40
2018-06-30T13:04:48.236Z,27.26
2018-06-30T13:07:19.827Z,27.17
2018-06-30T13:09:50.507Z,27.14
2018-06-30T13:12:21.054Z,27.28
2018-06-30T13:14:51.565Z,27.34
2018-06-30T13:17:22.185Z,27.37
2018-06-30T13:19:53.690Z,27.51
2018-06-30T13:22:24.161Z,27.61
2018-06-30T13:24:54.842Z,27.60
2018-06-30T13:27:43.152Z,27.61
2018-06-30T13:30:15.213Z,27.60
2018-06-30T13:32:45.639Z,27.67
2018-06-30T13:35:43.411Z,27.33
2018-06-30T13:38:19.513Z,27.60
2018-06-30T13:40:50.659Z,27.71
2018-06-30T13:43:21.311Z,27.75
2018-06-30T13:45:53.811Z,27.57
2018-06-30T13:48:49.162Z,27.36
2018-06-30T13:51:20.564Z,27.36
2018-06-30T13:53:51.463Z,27.26
2018-06-30T13:56:22.166Z,27.38
2018-06-30T13:58:52.459Z,27.54
2018-06-30T14:01:23.036Z,27.64
2018-06-30T14:03:55.772Z,27.33
2018-06-30T14:07:19.532Z,27.57
2018-06-30T14:10:00.551Z,27.41
2018-06-30T14:12:43.603Z,27.38
2018-06-30T14:15:14.248Z,27.40
2018-06-30T14:26:39.909Z,27.64
2018-06-30T14:29:10.591Z,27.61
2018-06-30T14:36:13.501Z,27.45
2018-06-30T14:48:55.724Z,27.42
2018-06-30T14:51:28.286Z,27.44
2018-06-30T14:53:58.689Z,27.43
2018-06-30T14:56:29.919Z,27.57
2018-06-30T14:59:00.252Z,27.73
2018-06-30T15:01:30.748Z,27.72
2018-06-30T15:04:01.127Z,27.54
2018-06-30T15:06:31.554Z,27.67
2018-06-30T15:09:01.967Z,27.62
2018-06-30T15:11:32.364Z,27.58
2018-06-30T15:14:02.770Z,27.62
2018-06-30T15:16:33.170Z,27.54
2018-06-30T15:19:03.542Z,27.61
2018-06-30T15:21:37.318Z,27.70
2018-06-30T15:24:08.470Z,27.61
2018-06-30T15:26:38.920Z,27.70
2018-06-30T15:29:09.366Z,27.65
2018-06-30T15:31:39.757Z,27.64
2018-06-30T15:34:10.205Z,27.59
2018-06-30T15:36:40.666Z,27.68
2018-06-30T15:39:11.778Z,27.71
2018-06-30T15:41:42.249Z,27.75
2018-06-30T15:44:12.776Z,27.81
2018-06-30T15:46:46.198Z,27.86
2018-06-30T15:49:16.697Z,27.89
2018-06-30T15:51:47.055Z,27.77
2018-06-30T15:54:17.433Z,27.83
2018-06-30T15:56:47.901Z,27.83
2018-06-30T15:59:18.522Z,27.77
2018-06-30T16:01:48.935Z,27.62
2018-06-30T16:04:19.437Z,27.60
2018-06-30T16:06:49.829Z,27.64
2018-06-30T16:09:20.232Z,27.58
2018-06-30T16:11:50.637Z,27.63
2018-06-30T16:14:21.044Z,27.50
2018-06-30T16:16:51.414Z,27.49
2018-06-30T16:19:21.903Z,27.61
2018-06-30T16:21:52.245Z,27.59
2018-06-30T16:24:23.706Z,27.46
2018-06-30T16:26:54.139Z,27.46
2018-06-30T16:29:24.453Z,27.44
2018-06-30T16:31:54.929Z,27.45
2018-06-30T16:34:25.399Z,27.53
2018-06-30T16:36:55.830Z,27.51
2018-06-30T16:39:26.152Z,27.49
2018-06-30T16:41:56.610Z,27.44
2018-06-30T16:44:26.993Z,27.44
2018-06-30T16:46:57.655Z,27.52
2018-06-30T16:49:35.511Z,27.53
2018-06-30T16:52:05.923Z,27.50
2018-06-30T16:54:36.352Z,27.46
2018-06-30T16:57:07.104Z,27.51
2018-06-30T16:59:37.560Z,27.48
2018-06-30T17:02:08.023Z,27.42
2018-06-30T17:04:38.430Z,27.36
2018-06-30T17:07:08.851Z,27.39
2018-06-30T17:09:39.269Z,27.31
2018-06-30T17:12:09.738Z,27.38
2018-06-30T17:14:40.173Z,27.34
2018-06-30T17:17:10.667Z,27.44
2018-06-30T17:19:57.573Z,27.42
2018-06-30T17:22:28.272Z,27.40
2018-06-30T17:24:58.635Z,27.41
2018-06-30T17:27:29.124Z,27.43
2018-06-30T17:29:59.689Z,27.43
2018-06-30T17:32:30.044Z,27.42
2018-06-30T17:35:00.391Z,27.26
2018-06-30T17:37:30.712Z,27.19
2018-06-30T17:40:01.063Z,27.26
2018-06-30T17:42:31.504Z,27.15
2018-06-30T17:45:02.056Z,27.14
2018-06-30T17:47:32.541Z,27.08
2018-06-30T17:50:03.118Z,27.03
2018-06-30T17:52:39.841Z,27.02
2018-06-30T17:55:10.265Z,26.97
2018-06-30T17:57:42.775Z,26.93
2018-06-30T18:00:13.238Z,26.83
2018-06-30T18:02:43.663Z,26.80
2018-06-30T18:05:14.888Z,26.78
2018-06-30T18:07:45.596Z,26.81
2018-06-30T18:10:22.641Z,26.78
2018-06-30T18:13:03.904Z,26.78
2018-06-30T18:15:34.334Z,26.74
2018-06-30T18:27:27.025Z,26.65
2018-06-30T18:30:08.688Z,26.60
2018-06-30T18:32:42.725Z,26.61
2018-06-30T18:35:16.829Z,26.48
2018-06-30T18:37:54.996Z,26.48
2018-06-30T18:58:47.426Z,26.17
2018-06-30T19:01:18.579Z,26.04
2018-06-30T19:04:11.719Z,25.93
2018-06-30T19:06:42.579Z,25.84
2018-06-30T19:09:41.291Z,25.81
2018-06-30T19:12:18.063Z,25.70
2018-06-30T19:14:56.808Z,25.60
2018-06-30T19:17:28.163Z,25.49
2018-06-30T19:19:58.756Z,25.42
2018-06-30T19:22:50.685Z,25.34
2018-06-30T19:25:43.507Z,25.28
2018-06-30T19:28:19.807Z,25.18
2018-06-30T19:30:56.146Z,25.22
2018-06-30T19:33:27.073Z,25.11
2018-06-30T19:36:05.907Z,24.67
2018-06-30T19:38:36.582Z,24.95
2018-06-30T19:44:13.117Z,24.81
2018-06-30T19:46:43.534Z,24.74
2018-06-30T19:49:14.151Z,24.69
2018-06-30T19:51:44.637Z,24.64
2018-06-30T19:54:16.126Z,24.56
2018-06-30T19:56:46.969Z,24.50
2018-06-30T19:59:18.674Z,24.39
2018-06-30T20:01:49.960Z,24.33
2018-06-30T20:04:20.686Z,24.28
2018-06-30T20:06:51.212Z,24.18
2018-06-30T20:09:21.762Z,24.14
2018-06-30T20:11:52.400Z,24.08
2018-06-30T20:14:22.769Z,23.91
2018-06-30T20:16:53.199Z,23.86
2018-06-30T20:19:23.820Z,23.78
2018-06-30T20:21:54.348Z,23.72
2018-06-30T20:24:24.837Z,23.63
2018-06-30T20:26:55.447Z,23.52
2018-06-30T20:29:25.689Z,23.45
2018-06-30T20:31:56.149Z,23.38
2018-06-30T20:34:26.552Z,23.27
2018-06-30T20:36:56.935Z,23.26
2018-06-30T20:39:27.328Z,23.24
2018-06-30T20:41:57.741Z,23.16
2018-06-30T20:44:28.228Z,23.09
2018-06-30T20:46:58.688Z,23.10
2018-06-30T20:49:29.162Z,23.05
2018-06-30T20:52:10.065Z,23.03
2018-06-30T20:54:40.694Z,22.92
2018-06-30T20:57:11.139Z,22.77
2018-06-30T20:59:41.652Z,22.74
2018-06-30T21:02:12.032Z,22.72
2018-06-30T21:04:42.430Z,22.69
2018-06-30T21:07:12.811Z,22.54
2018-06-30T21:09:43.260Z,22.38
2018-06-30T21:12:19.339Z,22.44
2018-06-30T21:14:49.821Z,22.36
2018-06-30T21:17:20.378Z,22.26
2018-06-30T21:19:50.796Z,22.22
2018-06-30T21:22:21.277Z,22.22
2018-06-30T21:24:51.774Z,22.24
2018-06-30T21:27:22.246Z,22.21
2018-06-30T21:29:53.209Z,22.14
2018-06-30T21:32:24.118Z,22.07
2018-06-30T21:34:54.830Z,22.03
2018-06-30T21:37:25.353Z,21.88
2018-06-30T21:39:59.169Z,21.88
2018-06-30T21:42:29.639Z,21.81
2018-06-30T21:45:00.151Z,21.80
2018-06-30T21:47:30.639Z,21.74
2018-06-30T21:50:01.066Z,21.64
2018-06-30T21:52:33.564Z,21.61
2018-06-30T21:55:04.050Z,21.58
2018-06-30T21:57:34.555Z,21.52
2018-06-30T22:00:09.074Z,21.46
2018-06-30T22:02:39.598Z,21.40
2018-06-30T22:05:10.460Z,21.38
2018-06-30T22:07:40.917Z,21.26
2018-06-30T22:10:11.447Z,21.18
2018-06-30T22:12:41.909Z,21.18
2018-06-30T22:15:12.321Z,21.17
2018-06-30T22:17:42.841Z,21.03
2018-06-30T22:20:13.379Z,20.97
2018-06-30T22:22:43.785Z,20.93
2018-06-30T22:25:14.366Z,20.90
2018-06-30T22:27:44.795Z,20.84
2018-06-30T22:30:15.288Z,20.83
2018-06-30T22:32:45.798Z,20.76
2018-06-30T22:35:16.249Z,20.70
2018-06-30T22:37:46.750Z,20.62
2018-06-30T22:40:19.434Z,20.55
2018-06-30T22:42:49.952Z,20.53
2018-06-30T22:45:20.443Z,20.53
2018-06-30T22:47:50.872Z,20.51
2018-06-30T22:50:21.352Z,20.46
2018-06-30T22:52:51.765Z,20.42
2018-06-30T22:55:40.562Z,20.38
2018-06-30T22:58:11.141Z,20.31
2018-06-30T23:00:41.608Z,20.31
2018-06-30T23:03:12.922Z,20.27
2018-06-30T23:05:43.520Z,20.21
2018-06-30T23:08:25.610Z,20.17
2018-06-30T23:10:55.820Z,20.06
2018-06-30T23:13:26.133Z,20.00
2018-06-30T23:16:06.371Z,19.93
2018-06-30T23:18:36.848Z,19.86
2018-06-30T23:21:07.046Z,19.80
2018-06-30T23:23:37.374Z,19.72
2018-06-30T23:26:07.937Z,19.63
2018-06-30T23:28:38.374Z,19.57
2018-06-30T23:31:08.806Z,19.55
2018-06-30T23:33:39.226Z,19.44
2018-06-30T23:36:09.681Z,19.43
2018-06-30T23:38:45.950Z,19.38
2018-06-30T23:41:35.185Z,19.31
2018-06-30T23:44:05.663Z,19.25
2018-06-30T23:46:36.140Z,19.15
2018-06-30T23:49:06.531Z,19.00
2018-06-30T23:51:43.394Z,19.04
2018-06-30T23:54:13.819Z,19.02
2018-06-30T23:56:44.258Z,18.94
2018-06-30T23:59:18.798Z,18.87
